TimeMST,TemperatureF,Dew PointF,Humidity,Sea Level PressureIn,VisibilityMPH,Wind Direction,Wind SpeedMPH,Gust SpeedMPH,PrecipitationIn,Events,Conditions,WindDirDegrees,DateUTC
12:52 AM,46.0,19.0,34,29.76,10.0,SSW,19.6,-,N/A,,Clear,200,2013-11-03 06:52:00
1:52 AM,42.1,18.0,38,29.73,10.0,SW,12.7,-,N/A,,Clear,220,2013-11-03 07:52:00
1:52 AM,46.0,18.0,33,29.71,10.0,West,13.8,19.6,N/A,,Clear,260,2013-11-03 08:52:00
2:52 AM,42.1,18.0,38,29.73,10.0,SSW,15.0,-,N/A,,Clear,210,2013-11-03 09:52:00
3:52 AM,39.0,17.1,41,29.73,10.0,SSW,12.7,-,N/A,,Clear,210,2013-11-03 10:52:00
4:52 AM,34.0,17.1,50,29.74,10.0,South,9.2,-,N/A,,Clear,180,2013-11-03 11:52:00
5:52 AM,37.9,18.0,45,29.76,10.0,SSW,9.2,-,N/A,,Clear,210,2013-11-03 12:52:00
6:52 AM,37.0,18.0,46,29.76,10.0,SSW,13.8,-,N/A,,Clear,200,2013-11-03 13:52:00
7:52 AM,42.1,19.0,40,29.76,10.0,SSW,15.0,-,N/A,,Clear,200,2013-11-03 14:52:00
8:52 AM,46.9,25.0,42,29.81,10.0,North,11.5,-,N/A,,Clear,10,2013-11-03 15:52:00
9:52 AM,48.9,21.0,33,29.81,10.0,North,13.8,-,N/A,,Clear,10,2013-11-03 16:52:00
10:52 AM,48.9,24.1,38,29.83,10.0,North,19.6,-,N/A,,Clear,360,2013-11-03 17:52:00
11:52 AM,51.1,26.1,38,29.82,10.0,North,20.7,-,N/A,,Partly Cloudy,360,2013-11-03 18:52:00
12:52 PM,48.9,26.1,41,29.83,10.0,North,23.0,27.6,N/A,,Scattered Clouds,10,2013-11-03 19:52:00
1:52 PM,48.0,28.0,46,29.83,10.0,North,26.5,34.5,N/A,,Scattered Clouds,10,2013-11-03 20:52:00
2:52 PM,42.1,28.9,60,29.91,10.0,NNE,25.3,33.4,N/A,,Mostly Cloudy,30,2013-11-03 21:52:00
3:52 PM,39.9,28.9,65,29.94,10.0,North,18.4,-,N/A,,Mostly Cloudy,10,2013-11-03 22:52:00
3:57 PM,42.8,28.4,57,29.96,10.0,North,17.3,-,N/A,,Scattered Clouds,10,2013-11-03 22:57:00
4:52 PM,39.0,26.1,60,29.97,10.0,NNE,19.6,-,N/A,,Partly Cloudy,20,2013-11-03 23:52:00
5:52 PM,34.0,26.1,73,29.98,10.0,NNW,12.7,-,N/A,,Clear,340,2013-11-04 00:52:00
6:52 PM,33.1,26.1,75,30.01,10.0,NNW,12.7,-,N/A,,Clear,340,2013-11-04 01:52:00
7:52 PM,33.1,25.0,72,29.98,10.0,NNW,15.0,-,N/A,,Clear,340,2013-11-04 02:52:00
8:52 PM,30.9,24.1,76,29.97,10.0,NNE,5.8,-,N/A,,Clear,30,2013-11-04 03:52:00
9:52 PM,30.0,24.1,79,29.97,10.0,Calm,Calm,-,N/A,,Clear,0,2013-11-04 04:52:00
10:52 PM,33.1,23.0,66,29.96,10.0,North,5.8,-,N/A,,Clear,360,2013-11-04 05:52:00